Hawaiian Chieftain — WDC8751 — position and weather

sailwx.info

Track history (hours):
 
Tides and Currents Weather Stations Pressure Air Temp Water Temp Dewpoint Dewpoint Depression Visibility Wind Speed Wind Dir Waves Ship Positions

Hawaiian Chieftain (United States)

Operated briefly as "Spirt of Larinda". When she sailed from Sausalito, California, callsign was WAA7737.

Ship's website: http://www.historicalseaport.org/HawaiianChieftain.htm

Owner: GRAYS HARBOR HISTORICAL SEAPORT AUTHORITY, ABERDEEN, WA. More information available from US FCC via Universal Licensing System and Coast Guard Vessel Documentation Center.

Last reported at 2017-Aug-22 17:53 UTC. Time now 2017-Aug-22 22:38 UTC.
Position N 47°58' W 122°32'.

Length 31 m.

Type: Sailing vessel. MMSI: 367092520.

Date/timePositionNaut miles runAvg speedWind from/ knotsBaromVisibWave heightAir tempDewpointWater temp
2017-Aug-22 17:53N 47°58' W 122°32'1 1.6
2017-Aug-22 17:17N 47°57' W 122°31'2 7.7
2017-Aug-22 17:01N 47°56' W 122°29'4 8.4
2017-Aug-22 16:31N 47°52' W 122°26'4 7.6
2017-Aug-22 16:00N 47°49' W 122°24'0 0.2
2017-Aug-22 15:30N 47°48' W 122°24'0 0.0
2017-Aug-22 14:53N 47°48' W 122°24'0 0.0
2017-Aug-22 14:29N 47°48' W 122°24'0 0.0
2017-Aug-22 13:57N 47°48' W 122°24'0 0.0
2017-Aug-22 13:31N 47°48' W 122°24'0 0.0
2017-Aug-22 13:01N 47°48' W 122°24'0 0.0
2017-Aug-22 12:30N 47°48' W 122°24'0 0.0
2017-Aug-22 11:57N 47°48' W 122°24'0 0.0
2017-Aug-22 11:30N 47°48' W 122°24'0 0.0
2017-Aug-22 11:01N 47°48' W 122°24'0 0.0
2017-Aug-22 10:30N 47°48' W 122°24'0 0.0
2017-Aug-22 10:01N 47°48' W 122°24'0 0.2
2017-Aug-22 09:31N 47°49' W 122°23'0 0.2
2017-Aug-22 08:59N 47°48' W 122°24'0 0.0
2017-Aug-22 08:30N 47°48' W 122°24'0 0.0
2017-Aug-22 08:00N 47°48' W 122°24'0 0.0
2017-Aug-22 07:29N 47°48' W 122°24'0 0.0
2017-Aug-22 07:00N 47°48' W 122°24'0 0.0
2017-Aug-22 06:30N 47°48' W 122°24'0 0.0
2017-Aug-22 06:00N 47°48' W 122°24'0 0.0
2017-Aug-22 05:30N 47°48' W 122°24'0 0.3
2017-Aug-22 05:00N 47°48' W 122°23'0 0.0
2017-Aug-21 21:59N 47°49' W 122°24'0 0.1
2017-Aug-21 21:30N 47°48' W 122°24'0 0.1
2017-Aug-21 21:00N 47°49' W 122°24'0 0.0
2017-Aug-21 20:29N 47°48' W 122°24'0 0.0
2017-Aug-21 20:00N 47°48' W 122°24'0 0.3
2017-Aug-21 19:30N 47°49' W 122°23'0 0.3
2017-Aug-21 18:56N 47°48' W 122°24'0 0.0
2017-Aug-21 18:30N 47°48' W 122°24'0 0.6
2017-Aug-21 18:00N 47°49' W 122°24'0 0.4
2017-Aug-21 17:30N 47°49' W 122°24'0 0.5
2017-Aug-21 16:59N 47°49' W 122°24'0 0.6
2017-Aug-21 16:29N 47°48' W 122°24'0 0.0
2017-Aug-21 16:00N 47°48' W 122°24'0 0.0
2017-Aug-21 15:30N 47°49' W 122°24'0 0.2
2017-Aug-21 14:55N 47°49' W 122°23'0 0.3
2017-Aug-21 14:30N 47°48' W 122°24'0 0.0
2017-Aug-21 13:59N 47°48' W 122°24'0 0.0
2017-Aug-21 13:29N 47°48' W 122°24'0 0.0
2017-Aug-21 12:58N 47°48' W 122°24'0 0.0
2017-Aug-21 12:30N 47°48' W 122°24'0 0.0
2017-Aug-21 12:00N 47°48' W 122°24'0 0.1
2017-Aug-21 11:28N 47°49' W 122°23'0 0.2
2017-Aug-21 10:59N 47°49' W 122°23'0 0.2
2017-Aug-21 10:28N 47°48' W 122°24'0 0.0
2017-Aug-21 10:00N 47°48' W 122°24'0 0.2
2017-Aug-21 09:30N 47°49' W 122°23'0 0.2
2017-Aug-21 09:00N 47°48' W 122°24'0 0.0
2017-Aug-21 08:30N 47°48' W 122°24'0 0.2
2017-Aug-21 07:59N 47°49' W 122°23'0 0.2
2017-Aug-21 07:30N 47°48' W 122°24'0 0.0
2017-Aug-21 07:00N 47°48' W 122°24'0 0.0
2017-Aug-21 06:30N 47°48' W 122°24'0 0.0
2017-Aug-21 06:00N 47°48' W 122°24'0 0.1
2017-Aug-21 05:28N 47°48' W 122°23'0 0.3
2017-Aug-21 05:00N 47°48' W 122°23'0 0.4
2017-Aug-21 03:56N 47°48' W 122°23'1 0.3
2017-Aug-21 01:57N 47°49' W 122°23'0 0.3
2017-Aug-21 01:27N 47°48' W 122°24'0 0.3
2017-Aug-21 01:00N 47°49' W 122°24'0 0.0
2017-Aug-21 00:30N 47°49' W 122°24'0 0.0
2017-Aug-21 00:00N 47°48' W 122°24'1 2.2
2017-Aug-20 23:30N 47°50' W 122°23'1 2.7
2017-Aug-20 23:00N 47°51' W 122°23'0 0.5
2017-Aug-20 22:30N 47°51' W 122°24'0 0.3
2017-Aug-20 22:00N 47°51' W 122°24'1 2.9
2017-Aug-20 21:30N 47°49' W 122°23'1 1.6
2017-Aug-20 21:00N 47°48' W 122°23'0 0.1
2017-Aug-20 20:30N 47°49' W 122°24'0 0.0
2017-Aug-20 20:00N 47°48' W 122°24'0 0.0
2017-Aug-20 19:30N 47°48' W 122°24'0 0.2
2017-Aug-20 19:00N 47°49' W 122°23'0 0.2
2017-Aug-20 18:30N 47°48' W 122°24'0 0.0
2017-Aug-20 18:00N 47°48' W 122°24'0 0.0
2017-Aug-20 17:30N 47°48' W 122°24'0 0.0
2017-Aug-20 17:00N 47°48' W 122°24'0 0.0
2017-Aug-20 16:30N 47°48' W 122°24'0 0.0
2017-Aug-20 16:00N 47°48' W 122°24'0 0.0
2017-Aug-20 15:30N 47°48' W 122°24'0 0.0
2017-Aug-20 15:00N 47°48' W 122°24'0 0.0
2017-Aug-20 14:28N 47°48' W 122°24'0 0.0
2017-Aug-20 14:00N 47°48' W 122°24'0 0.2
2017-Aug-20 13:30N 47°49' W 122°23'0 0.2
2017-Aug-20 13:00N 47°48' W 122°24'0 0.0
2017-Aug-20 12:29N 47°48' W 122°24'0 0.0
2017-Aug-20 12:00N 47°48' W 122°24'0 0.0
2017-Aug-20 11:30N 47°48' W 122°24'0 0.4
2017-Aug-20 11:00N 47°48' W 122°24'0 0.4
2017-Aug-20 10:30N 47°49' W 122°24'0 0.1
2017-Aug-20 10:00N 47°48' W 122°23'0 0.2
2017-Aug-20 09:30N 47°48' W 122°24'0 0.2
2017-Aug-20 09:00N 47°48' W 122°24'0 0.0
2017-Aug-20 08:28N 47°48' W 122°24'0 0.2
2017-Aug-20 07:59N 47°49' W 122°23'0 0.2
2017-Aug-20 07:30N 47°48' W 122°24'0 0.2
2017-Aug-20 07:00N 47°49' W 122°23'0 0.1
2017-Aug-20 06:29N 47°49' W 122°23'0 0.1
2017-Aug-20 06:00N 47°49' W 122°23'0 0.2
2017-Aug-20 05:30N 47°48' W 122°24'0 0.2
2017-Aug-20 05:00N 47°48' W 122°23'1 0.2
2017-Aug-19 23:20N 47°49' W 122°24'1 0.8
2017-Aug-19 22:03N 47°50' W 122°23'0 0.3
2017-Aug-19 22:00N 47°50' W 122°23'1 2.1
2017-Aug-19 21:26N 47°49' W 122°24'1 1.7
2017-Aug-19 21:00N 47°48' W 122°24'0 0.0
2017-Aug-19 19:08N 47°48' W 122°24'0 0.1
2017-Aug-19 19:00N 47°48' W 122°24'0 0.0
2017-Aug-19 18:30N 47°48' W 122°24'0 0.0
2017-Aug-19 18:00N 47°48' W 122°24'0 0.2
2017-Aug-19 17:30N 47°49' W 122°24'0 0.2
2017-Aug-19 17:00N 47°48' W 122°24'0 0.0
2017-Aug-19 16:28N 47°48' W 122°24'0 0.2
2017-Aug-19 16:00N 47°49' W 122°23'0 0.2
2017-Aug-19 15:30N 47°48' W 122°24'0 0.0
2017-Aug-19 15:00N 47°48' W 122°24'0 0.0
2017-Aug-19 14:00N 47°49' W 122°24'0 0.3
2017-Aug-19 12:24N 47°48' W 122°23'0 1.0
2017-Aug-19 11:59N 47°48' W 122°24'0 0.0
2017-Aug-19 11:30N 47°48' W 122°24'0 0.1
2017-Aug-19 11:00N 47°48' W 122°24'0 0.1
2017-Aug-19 10:30N 47°49' W 122°24'0 0.0
2017-Aug-19 09:53N 47°48' W 122°24'0 0.1
2017-Aug-19 09:30N 47°48' W 122°24'0 0.0
2017-Aug-19 06:36N 47°49' W 122°23'0 0.0
2017-Aug-19 06:30N 47°49' W 122°23'0 0.1
2017-Aug-19 05:48N 47°49' W 122°23'0 0.1
2017-Aug-19 05:30N 47°49' W 122°23'0 0.0
2017-Aug-18 22:55N 47°48' W 122°24'0 0.2
2017-Aug-18 22:20N 47°49' W 122°23'0 0.2
2017-Aug-18 21:57N 47°48' W 122°24'0 0.1
2017-Aug-18 21:30N 47°48' W 122°23'1 1.4
2017-Aug-18 21:00N 47°49' W 122°24'  
Track history (hours):
 
Tides and Currents Weather Stations Pressure Air Temp Water Temp Dewpoint Dewpoint Depression Visibility Wind Speed Wind Dir Waves Ship Positions

Hawaiian Chieftain (United States)

Operated briefly as "Spirt of Larinda". When she sailed from Sausalito, California, callsign was WAA7737.

Ship's website: http://www.historicalseaport.org/HawaiianChieftain.htm

Owner: GRAYS HARBOR HISTORICAL SEAPORT AUTHORITY, ABERDEEN, WA. More information available from US FCC via Universal Licensing System and Coast Guard Vessel Documentation Center.

Last reported at 2017-Aug-22 17:53 UTC. Time now 2017-Aug-22 22:38 UTC.
Position N 47°58' W 122°32'.

Length 31 m.

Type: Sailing vessel. MMSI: 367092520.

Date/timePositionNaut miles runAvg speedWind from/ knotsBaromVisibWave heightAir tempDewpointWater temp
2017-Aug-22 17:53N 47°58' W 122°32'1 1.6
2017-Aug-22 17:17N 47°57' W 122°31'2 7.7
2017-Aug-22 17:01N 47°56' W 122°29'4 8.4
2017-Aug-22 16:31N 47°52' W 122°26'4 7.6
2017-Aug-22 16:00N 47°49' W 122°24'0 0.2
2017-Aug-22 15:30N 47°48' W 122°24'0 0.0
2017-Aug-22 14:53N 47°48' W 122°24'0 0.0
2017-Aug-22 14:29N 47°48' W 122°24'0 0.0
2017-Aug-22 13:57N 47°48' W 122°24'0 0.0
2017-Aug-22 13:31N 47°48' W 122°24'0 0.0
2017-Aug-22 13:01N 47°48' W 122°24'0 0.0
2017-Aug-22 12:30N 47°48' W 122°24'0 0.0
2017-Aug-22 11:57N 47°48' W 122°24'0 0.0
2017-Aug-22 11:30N 47°48' W 122°24'0 0.0
2017-Aug-22 11:01N 47°48' W 122°24'0 0.0
2017-Aug-22 10:30N 47°48' W 122°24'0 0.0
2017-Aug-22 10:01N 47°48' W 122°24'0 0.2
2017-Aug-22 09:31N 47°49' W 122°23'0 0.2
2017-Aug-22 08:59N 47°48' W 122°24'0 0.0
2017-Aug-22 08:30N 47°48' W 122°24'0 0.0
2017-Aug-22 08:00N 47°48' W 122°24'0 0.0
2017-Aug-22 07:29N 47°48' W 122°24'0 0.0
2017-Aug-22 07:00N 47°48' W 122°24'0 0.0
2017-Aug-22 06:30N 47°48' W 122°24'0 0.0
2017-Aug-22 06:00N 47°48' W 122°24'0 0.0
2017-Aug-22 05:30N 47°48' W 122°24'0 0.3
2017-Aug-22 05:00N 47°48' W 122°23'0 0.0
2017-Aug-21 21:59N 47°49' W 122°24'0 0.1
2017-Aug-21 21:30N 47°48' W 122°24'0 0.1
2017-Aug-21 21:00N 47°49' W 122°24'0 0.0
2017-Aug-21 20:29N 47°48' W 122°24'0 0.0
2017-Aug-21 20:00N 47°48' W 122°24'0 0.3
2017-Aug-21 19:30N 47°49' W 122°23'0 0.3
2017-Aug-21 18:56N 47°48' W 122°24'0 0.0
2017-Aug-21 18:30N 47°48' W 122°24'0 0.6
2017-Aug-21 18:00N 47°49' W 122°24'0 0.4
2017-Aug-21 17:30N 47°49' W 122°24'0 0.5
2017-Aug-21 16:59N 47°49' W 122°24'0 0.6
2017-Aug-21 16:29N 47°48' W 122°24'0 0.0
2017-Aug-21 16:00N 47°48' W 122°24'0 0.0
2017-Aug-21 15:30N 47°49' W 122°24'0 0.2
2017-Aug-21 14:55N 47°49' W 122°23'0 0.3
2017-Aug-21 14:30N 47°48' W 122°24'0 0.0
2017-Aug-21 13:59N 47°48' W 122°24'0 0.0
2017-Aug-21 13:29N 47°48' W 122°24'0 0.0
2017-Aug-21 12:58N 47°48' W 122°24'0 0.0
2017-Aug-21 12:30N 47°48' W 122°24'0 0.0
2017-Aug-21 12:00N 47°48' W 122°24'0 0.1
2017-Aug-21 11:28N 47°49' W 122°23'0 0.2
2017-Aug-21 10:59N 47°49' W 122°23'0 0.2
2017-Aug-21 10:28N 47°48' W 122°24'0 0.0
2017-Aug-21 10:00N 47°48' W 122°24'0 0.2
2017-Aug-21 09:30N 47°49' W 122°23'0 0.2
2017-Aug-21 09:00N 47°48' W 122°24'0 0.0
2017-Aug-21 08:30N 47°48' W 122°24'0 0.2
2017-Aug-21 07:59N 47°49' W 122°23'0 0.2
2017-Aug-21 07:30N 47°48' W 122°24'0 0.0
2017-Aug-21 07:00N 47°48' W 122°24'0 0.0
2017-Aug-21 06:30N 47°48' W 122°24'0 0.0
2017-Aug-21 06:00N 47°48' W 122°24'0 0.1
2017-Aug-21 05:28N 47°48' W 122°23'0 0.3
2017-Aug-21 05:00N 47°48' W 122°23'0 0.4
2017-Aug-21 03:56N 47°48' W 122°23'1 0.3
2017-Aug-21 01:57N 47°49' W 122°23'0 0.3
2017-Aug-21 01:27N 47°48' W 122°24'0 0.3
2017-Aug-21 01:00N 47°49' W 122°24'0 0.0
2017-Aug-21 00:30N 47°49' W 122°24'0 0.0
2017-Aug-21 00:00N 47°48' W 122°24'1 2.2
2017-Aug-20 23:30N 47°50' W 122°23'1 2.7
2017-Aug-20 23:00N 47°51' W 122°23'0 0.5
2017-Aug-20 22:30N 47°51' W 122°24'0 0.3
2017-Aug-20 22:00N 47°51' W 122°24'1 2.9
2017-Aug-20 21:30N 47°49' W 122°23'1 1.6
2017-Aug-20 21:00N 47°48' W 122°23'0 0.1
2017-Aug-20 20:30N 47°49' W 122°24'0 0.0
2017-Aug-20 20:00N 47°48' W 122°24'0 0.0
2017-Aug-20 19:30N 47°48' W 122°24'0 0.2
2017-Aug-20 19:00N 47°49' W 122°23'0 0.2
2017-Aug-20 18:30N 47°48' W 122°24'0 0.0
2017-Aug-20 18:00N 47°48' W 122°24'0 0.0
2017-Aug-20 17:30N 47°48' W 122°24'0 0.0
2017-Aug-20 17:00N 47°48' W 122°24'0 0.0
2017-Aug-20 16:30N 47°48' W 122°24'0 0.0
2017-Aug-20 16:00N 47°48' W 122°24'0 0.0
2017-Aug-20 15:30N 47°48' W 122°24'0 0.0
2017-Aug-20 15:00N 47°48' W 122°24'0 0.0
2017-Aug-20 14:28N 47°48' W 122°24'0 0.0
2017-Aug-20 14:00N 47°48' W 122°24'0 0.2
2017-Aug-20 13:30N 47°49' W 122°23'0 0.2
2017-Aug-20 13:00N 47°48' W 122°24'0 0.0
2017-Aug-20 12:29N 47°48' W 122°24'0 0.0
2017-Aug-20 12:00N 47°48' W 122°24'0 0.0
2017-Aug-20 11:30N 47°48' W 122°24'0 0.4
2017-Aug-20 11:00N 47°48' W 122°24'0 0.4
2017-Aug-20 10:30N 47°49' W 122°24'0 0.1
2017-Aug-20 10:00N 47°48' W 122°23'0 0.2
2017-Aug-20 09:30N 47°48' W 122°24'0 0.2
2017-Aug-20 09:00N 47°48' W 122°24'0 0.0
2017-Aug-20 08:28N 47°48' W 122°24'0 0.2
2017-Aug-20 07:59N 47°49' W 122°23'0 0.2
2017-Aug-20 07:30N 47°48' W 122°24'0 0.2
2017-Aug-20 07:00N 47°49' W 122°23'0 0.1
2017-Aug-20 06:29N 47°49' W 122°23'0 0.1
2017-Aug-20 06:00N 47°49' W 122°23'0 0.2
2017-Aug-20 05:30N 47°48' W 122°24'0 0.2
2017-Aug-20 05:00N 47°48' W 122°23'1 0.2
2017-Aug-19 23:20N 47°49' W 122°24'1 0.8
2017-Aug-19 22:03N 47°50' W 122°23'0 0.3
2017-Aug-19 22:00N 47°50' W 122°23'1 2.1
2017-Aug-19 21:26N 47°49' W 122°24'1 1.7
2017-Aug-19 21:00N 47°48' W 122°24'0 0.0
2017-Aug-19 19:08N 47°48' W 122°24'0 0.1
2017-Aug-19 19:00N 47°48' W 122°24'0 0.0
2017-Aug-19 18:30N 47°48' W 122°24'0 0.0
2017-Aug-19 18:00N 47°48' W 122°24'0 0.2
2017-Aug-19 17:30N 47°49' W 122°24'0 0.2
2017-Aug-19 17:00N 47°48' W 122°24'0 0.0
2017-Aug-19 16:28N 47°48' W 122°24'0 0.2
2017-Aug-19 16:00N 47°49' W 122°23'0 0.2
2017-Aug-19 15:30N 47°48' W 122°24'0 0.0
2017-Aug-19 15:00N 47°48' W 122°24'0 0.0
2017-Aug-19 14:00N 47°49' W 122°24'0 0.3
2017-Aug-19 12:24N 47°48' W 122°23'0 1.0
2017-Aug-19 11:59N 47°48' W 122°24'0 0.0
2017-Aug-19 11:30N 47°48' W 122°24'0 0.1
2017-Aug-19 11:00N 47°48' W 122°24'0 0.1
2017-Aug-19 10:30N 47°49' W 122°24'0 0.0
2017-Aug-19 09:53N 47°48' W 122°24'0 0.1
2017-Aug-19 09:30N 47°48' W 122°24'0 0.0
2017-Aug-19 06:36N 47°49' W 122°23'0 0.0
2017-Aug-19 06:30N 47°49' W 122°23'0 0.1
2017-Aug-19 05:48N 47°49' W 122°23'0 0.1
2017-Aug-19 05:30N 47°49' W 122°23'0 0.0
2017-Aug-18 22:55N 47°48' W 122°24'0 0.2
2017-Aug-18 22:20N 47°49' W 122°23'0 0.2
2017-Aug-18 21:57N 47°48' W 122°24'0 0.1
2017-Aug-18 21:30N 47°48' W 122°23'1 1.4
2017-Aug-18 21:00N 47°49' W 122°24'  

Dump ship's entire track history